createdAt,value
2023-05-19T00:01:05.909Z,97070.50
2023-05-19T00:06:06.647Z,97064.69
2023-05-19T00:11:01.422Z,97057.25
2023-05-19T00:15:55.710Z,97063.63
2023-05-19T00:20:47.453Z,97062.25
2023-05-19T00:25:39.197Z,97048.38
2023-05-19T00:30:31.766Z,97049.88
2023-05-19T00:35:24.494Z,97057.75
2023-05-19T00:40:16.619Z,97045.63
2023-05-19T00:45:08.910Z,97043.44
2023-05-19T00:50:00.798Z,97047.19
2023-05-19T00:54:53.899Z,97052.44
2023-05-19T00:59:45.672Z,97041.47
2023-05-19T01:04:41.633Z,97036.16
2023-05-19T01:09:33.951Z,97035.94
2023-05-19T01:14:25.713Z,97037.16
2023-05-19T01:19:53.919Z,97028.72
2023-05-19T01:25:12.914Z,97035.66
2023-05-19T01:30:27.148Z,97041.69
2023-05-19T01:35:20.342Z,97032.22
2023-05-19T01:40:12.759Z,97041.28
2023-05-19T01:45:06.811Z,97043.47
2023-05-19T01:49:58.558Z,97039.25
2023-05-19T01:54:50.379Z,97042.50
2023-05-19T02:00:26.523Z,97036.09
2023-05-19T02:05:38.216Z,97046.84
2023-05-19T02:10:33.129Z,97038.59
2023-05-19T02:15:33.102Z,97038.28
2023-05-19T02:20:24.843Z,97032.53
2023-05-19T02:25:16.680Z,97039.66
2023-05-19T02:30:09.666Z,97047.34
2023-05-19T02:35:01.404Z,97034.50
2023-05-19T02:39:53.146Z,97027.22
2023-05-19T02:44:45.042Z,97034.16
2023-05-19T02:49:36.795Z,97024.09
2023-05-19T02:54:30.546Z,97024.81
2023-05-19T02:59:25.374Z,97017.25
2023-05-19T03:04:20.020Z,97019.19
2023-05-19T03:09:11.736Z,97019.41
2023-05-19T03:14:03.451Z,97018.63
2023-05-19T03:18:55.848Z,97016.06
2023-05-19T03:23:47.609Z,97021.16
2023-05-19T03:28:39.367Z,97029.25
2023-05-19T03:33:31.376Z,97033.84
2023-05-19T03:38:23.508Z,97028.75
2023-05-19T03:43:16.092Z,97033.84
2023-05-19T03:48:07.993Z,97040.53
2023-05-19T03:53:00.390Z,97030.47
2023-05-19T03:57:55.005Z,97036.41
2023-05-19T04:02:47.763Z,97030.59
2023-05-19T04:07:39.676Z,97031.00
2023-05-19T04:12:32.252Z,97036.59
2023-05-19T04:17:33.850Z,97030.53
2023-05-19T04:22:27.814Z,97038.84
2023-05-19T04:37:35.177Z,97040.38
2023-05-19T04:47:38.725Z,97044.03
2023-05-19T04:57:37.951Z,97050.16
2023-05-19T05:02:41.072Z,97056.13
2023-05-19T05:07:32.842Z,97048.66
2023-05-19T05:12:25.029Z,97042.16
2023-05-19T05:22:23.445Z,97047.91
2023-05-19T05:27:15.202Z,97051.63
2023-05-19T05:32:07.923Z,97054.91
2023-05-19T05:36:59.689Z,97057.53
2023-05-19T05:41:51.452Z,97057.38
2023-05-19T05:52:04.960Z,97053.09
2023-05-19T06:17:47.273Z,97071.75
2023-05-19T06:22:47.073Z,97058.22
2023-05-19T06:32:46.367Z,97053.50
2023-05-19T06:37:39.364Z,97065.19
2023-05-19T06:47:43.888Z,97057.59
2023-05-19T06:52:36.191Z,97061.22
2023-05-19T06:57:31.682Z,97062.78
2023-05-19T07:07:58.688Z,97063.25
2023-05-19T07:18:12.027Z,97067.78
2023-05-19T07:28:15.233Z,97059.19
2023-05-19T07:43:23.434Z,97056.53
2023-05-19T08:08:49.892Z,97045.63
2023-05-19T12:47:52.721Z,96940.41
2023-05-19T13:35:06.275Z,96931.19
2023-05-19T14:05:40.619Z,96939.28
2023-05-19T15:32:29.876Z,96926.88
2023-05-19T16:03:18.238Z,96927.94
2023-05-19T16:13:16.483Z,96908.94
2023-05-19T16:18:10.905Z,96903.06
2023-05-19T16:23:06.792Z,96911.34
2023-05-19T16:48:23.203Z,96921.78
2023-05-19T16:53:18.809Z,96920.44
2023-05-19T17:18:42.680Z,96907.91
2023-05-19T17:44:06.875Z,96911.88
2023-05-19T17:59:14.968Z,96918.50
2023-05-19T18:04:16.208Z,96907.66
2023-05-19T18:09:13.089Z,96914.44
2023-05-19T18:34:36.122Z,96919.16
2023-05-19T18:39:29.348Z,96922.69
2023-05-19T18:49:28.773Z,96913.63
2023-05-19T18:54:31.231Z,96904.69
2023-05-19T19:04:34.876Z,96914.47
2023-05-19T19:09:29.440Z,96916.84
2023-05-19T20:21:07.797Z,96915.47
2023-05-19T20:51:34.555Z,96889.06
2023-05-19T20:56:30.563Z,96883.22
2023-05-19T22:23:56.526Z,96818.06
2023-05-19T23:14:54.379Z,96786.19
2023-05-19T23:40:26.587Z,96745.66
2023-05-19T23:45:18.348Z,96752.75
2023-05-19T23:55:20.060Z,96744.88
